sensor_id;sensor_type;location;lat;lon;timestamp;temperature;humidity
76305;DHT22;65111;50.536;19.204;2023-05-07T00:00:23;9.40;88.00
76305;DHT22;65111;50.536;19.204;2023-05-07T00:02:50;9.40;88.30
76305;DHT22;65111;50.536;19.204;2023-05-07T00:05:16;9.30;88.30
76305;DHT22;65111;50.536;19.204;2023-05-07T00:07:43;9.30;88.50
76305;DHT22;65111;50.536;19.204;2023-05-07T00:10:10;9.30;88.50
76305;DHT22;65111;50.536;19.204;2023-05-07T00:12:38;9.30;88.60
76305;DHT22;65111;50.536;19.204;2023-05-07T00:15:05;9.30;88.60
76305;DHT22;65111;50.536;19.204;2023-05-07T00:17:33;9.30;88.70
76305;DHT22;65111;50.536;19.204;2023-05-07T00:19:59;9.20;88.50
76305;DHT22;65111;50.536;19.204;2023-05-07T00:22:25;9.30;88.50
76305;DHT22;65111;50.536;19.204;2023-05-07T00:24:51;9.30;88.60
76305;DHT22;65111;50.536;19.204;2023-05-07T00:27:17;9.20;88.70
76305;DHT22;65111;50.536;19.204;2023-05-07T00:29:43;9.20;88.50
76305;DHT22;65111;50.536;19.204;2023-05-07T00:32:09;9.20;88.50
76305;DHT22;65111;50.536;19.204;2023-05-07T00:34:36;9.20;88.80
76305;DHT22;65111;50.536;19.204;2023-05-07T00:37:01;9.20;88.80
76305;DHT22;65111;50.536;19.204;2023-05-07T00:39:27;9.20;89.00
76305;DHT22;65111;50.536;19.204;2023-05-07T00:41:53;9.20;88.90
76305;DHT22;65111;50.536;19.204;2023-05-07T00:44:19;9.10;88.90
76305;DHT22;65111;50.536;19.204;2023-05-07T00:46:46;9.10;88.90
76305;DHT22;65111;50.536;19.204;2023-05-07T00:49:14;9.20;88.90
76305;DHT22;65111;50.536;19.204;2023-05-07T00:51:40;9.20;88.80
76305;DHT22;65111;50.536;19.204;2023-05-07T00:54:07;9.20;88.60
76305;DHT22;65111;50.536;19.204;2023-05-07T00:56:34;9.30;88.40
76305;DHT22;65111;50.536;19.204;2023-05-07T00:59:04;9.30;88.40
76305;DHT22;65111;50.536;19.204;2023-05-07T01:01:31;9.20;88.40
76305;DHT22;65111;50.536;19.204;2023-05-07T01:03:57;9.20;88.50
76305;DHT22;65111;50.536;19.204;2023-05-07T01:06:25;9.20;88.70
76305;DHT22;65111;50.536;19.204;2023-05-07T01:08:53;9.20;88.70
76305;DHT22;65111;50.536;19.204;2023-05-07T01:11:22;9.10;88.70
76305;DHT22;65111;50.536;19.204;2023-05-07T01:13:49;9.20;88.60
76305;DHT22;65111;50.536;19.204;2023-05-07T01:16:16;9.10;88.70
76305;DHT22;65111;50.536;19.204;2023-05-07T01:18:42;9.20;88.60
76305;DHT22;65111;50.536;19.204;2023-05-07T01:21:11;9.10;88.60
76305;DHT22;65111;50.536;19.204;2023-05-07T01:23:38;9.20;88.40
76305;DHT22;65111;50.536;19.204;2023-05-07T01:26:05;9.10;88.40
76305;DHT22;65111;50.536;19.204;2023-05-07T01:28:32;9.10;88.30
76305;DHT22;65111;50.536;19.204;2023-05-07T01:31:01;9.10;88.50
76305;DHT22;65111;50.536;19.204;2023-05-07T01:33:32;8.90;88.50
76305;DHT22;65111;50.536;19.204;2023-05-07T01:36:00;9.00;88.70
76305;DHT22;65111;50.536;19.204;2023-05-07T01:38:28;9.00;88.70
76305;DHT22;65111;50.536;19.204;2023-05-07T01:40:55;9.00;88.70
76305;DHT22;65111;50.536;19.204;2023-05-07T01:43:22;9.00;88.50
76305;DHT22;65111;50.536;19.204;2023-05-07T01:45:48;8.90;88.70
76305;DHT22;65111;50.536;19.204;2023-05-07T01:48:15;8.90;88.80
76305;DHT22;65111;50.536;19.204;2023-05-07T01:50:44;8.90;88.70
76305;DHT22;65111;50.536;19.204;2023-05-07T01:53:11;8.80;88.90
76305;DHT22;65111;50.536;19.204;2023-05-07T01:55:37;8.80;88.80
76305;DHT22;65111;50.536;19.204;2023-05-07T01:58:03;8.80;88.70
76305;DHT22;65111;50.536;19.204;2023-05-07T02:00:30;8.80;88.70
76305;DHT22;65111;50.536;19.204;2023-05-07T02:02:56;8.80;88.70
76305;DHT22;65111;50.536;19.204;2023-05-07T02:05:22;8.80;88.60
76305;DHT22;65111;50.536;19.204;2023-05-07T02:07:49;8.80;88.60
76305;DHT22;65111;50.536;19.204;2023-05-07T02:10:15;8.80;88.50
76305;DHT22;65111;50.536;19.204;2023-05-07T02:12:41;8.80;88.50
76305;DHT22;65111;50.536;19.204;2023-05-07T02:15:08;8.80;88.70
76305;DHT22;65111;50.536;19.204;2023-05-07T02:17:35;8.80;88.60
76305;DHT22;65111;50.536;19.204;2023-05-07T02:20:03;8.80;88.60
76305;DHT22;65111;50.536;19.204;2023-05-07T02:22:29;8.70;88.40
76305;DHT22;65111;50.536;19.204;2023-05-07T02:24:56;8.70;88.40
76305;DHT22;65111;50.536;19.204;2023-05-07T02:27:22;8.80;88.40
76305;DHT22;65111;50.536;19.204;2023-05-07T02:29:47;8.70;88.30
76305;DHT22;65111;50.536;19.204;2023-05-07T02:32:13;8.80;88.20
76305;DHT22;65111;50.536;19.204;2023-05-07T02:34:39;8.70;88.30
76305;DHT22;65111;50.536;19.204;2023-05-07T02:37:05;8.60;88.30
76305;DHT22;65111;50.536;19.204;2023-05-07T02:39:31;8.60;88.20
76305;DHT22;65111;50.536;19.204;2023-05-07T02:41:58;8.70;88.10
76305;DHT22;65111;50.536;19.204;2023-05-07T02:44:23;8.70;88.00
76305;DHT22;65111;50.536;19.204;2023-05-07T02:46:49;8.80;87.80
76305;DHT22;65111;50.536;19.204;2023-05-07T02:49:15;8.70;87.70
76305;DHT22;65111;50.536;19.204;2023-05-07T02:51:41;8.80;87.60
76305;DHT22;65111;50.536;19.204;2023-05-07T02:54:07;8.70;87.70
76305;DHT22;65111;50.536;19.204;2023-05-07T02:56:33;8.80;87.70
76305;DHT22;65111;50.536;19.204;2023-05-07T02:59:00;8.80;87.90
76305;DHT22;65111;50.536;19.204;2023-05-07T03:01:26;8.70;87.70
76305;DHT22;65111;50.536;19.204;2023-05-07T03:03:52;8.80;87.40
76305;DHT22;65111;50.536;19.204;2023-05-07T03:06:18;8.80;87.30
76305;DHT22;65111;50.536;19.204;2023-05-07T03:08:44;8.70;87.40
76305;DHT22;65111;50.536;19.204;2023-05-07T03:11:10;8.70;87.30
76305;DHT22;65111;50.536;19.204;2023-05-07T03:13:36;8.70;87.00
76305;DHT22;65111;50.536;19.204;2023-05-07T03:16:02;8.60;87.30
76305;DHT22;65111;50.536;19.204;2023-05-07T03:18:28;8.70;87.30
76305;DHT22;65111;50.536;19.204;2023-05-07T03:20:54;8.70;87.20
76305;DHT22;65111;50.536;19.204;2023-05-07T03:23:20;8.70;86.90
76305;DHT22;65111;50.536;19.204;2023-05-07T03:25:45;8.70;86.90
76305;DHT22;65111;50.536;19.204;2023-05-07T03:28:12;8.60;86.80
76305;DHT22;65111;50.536;19.204;2023-05-07T03:30:38;8.60;87.00
76305;DHT22;65111;50.536;19.204;2023-05-07T03:33:04;8.50;87.20
76305;DHT22;65111;50.536;19.204;2023-05-07T03:35:30;8.60;87.20
76305;DHT22;65111;50.536;19.204;2023-05-07T03:37:56;8.60;87.10
76305;DHT22;65111;50.536;19.204;2023-05-07T03:40:22;8.60;87.10
76305;DHT22;65111;50.536;19.204;2023-05-07T03:42:48;8.60;87.30
76305;DHT22;65111;50.536;19.204;2023-05-07T03:45:14;8.50;87.20
76305;DHT22;65111;50.536;19.204;2023-05-07T03:47:41;8.50;87.10
76305;DHT22;65111;50.536;19.204;2023-05-07T03:50:07;8.40;87.20
76305;DHT22;65111;50.536;19.204;2023-05-07T03:52:34;8.50;87.10
76305;DHT22;65111;50.536;19.204;2023-05-07T03:55:00;8.40;86.90
76305;DHT22;65111;50.536;19.204;2023-05-07T03:57:26;8.30;87.10
76305;DHT22;65111;50.536;19.204;2023-05-07T03:59:52;8.40;87.00
76305;DHT22;65111;50.536;19.204;2023-05-07T04:02:18;8.20;87.10
76305;DHT22;65111;50.536;19.204;2023-05-07T04:04:45;8.30;87.10
76305;DHT22;65111;50.536;19.204;2023-05-07T04:07:11;8.40;86.90
76305;DHT22;65111;50.536;19.204;2023-05-07T04:09:37;8.50;86.80
76305;DHT22;65111;50.536;19.204;2023-05-07T04:12:03;8.40;86.70
76305;DHT22;65111;50.536;19.204;2023-05-07T04:14:29;8.40;86.60
76305;DHT22;65111;50.536;19.204;2023-05-07T04:16:58;8.30;86.60
76305;DHT22;65111;50.536;19.204;2023-05-07T04:19:25;8.40;86.70
76305;DHT22;65111;50.536;19.204;2023-05-07T04:21:51;8.20;86.70
76305;DHT22;65111;50.536;19.204;2023-05-07T04:24:17;8.50;86.40
76305;DHT22;65111;50.536;19.204;2023-05-07T04:26:43;8.20;86.10
76305;DHT22;65111;50.536;19.204;2023-05-07T04:29:09;8.30;86.20
76305;DHT22;65111;50.536;19.204;2023-05-07T04:31:35;8.40;86.10
76305;DHT22;65111;50.536;19.204;2023-05-07T04:34:01;8.30;86.30
76305;DHT22;65111;50.536;19.204;2023-05-07T04:36:27;8.30;86.20
76305;DHT22;65111;50.536;19.204;2023-05-07T04:38:55;8.20;86.30
76305;DHT22;65111;50.536;19.204;2023-05-07T04:41:21;8.30;86.40
76305;DHT22;65111;50.536;19.204;2023-05-07T04:43:47;8.20;86.50
76305;DHT22;65111;50.536;19.204;2023-05-07T04:46:13;8.20;86.60
76305;DHT22;65111;50.536;19.204;2023-05-07T04:48:39;8.20;86.60
76305;DHT22;65111;50.536;19.204;2023-05-07T04:51:06;8.00;86.50
76305;DHT22;65111;50.536;19.204;2023-05-07T04:53:33;8.10;86.60
76305;DHT22;65111;50.536;19.204;2023-05-07T04:55:59;8.30;86.40
76305;DHT22;65111;50.536;19.204;2023-05-07T04:58:25;8.20;86.60
76305;DHT22;65111;50.536;19.204;2023-05-07T05:00:51;8.10;86.60
76305;DHT22;65111;50.536;19.204;2023-05-07T05:03:17;8.10;86.40
76305;DHT22;65111;50.536;19.204;2023-05-07T05:05:44;8.10;86.10
76305;DHT22;65111;50.536;19.204;2023-05-07T05:08:10;8.10;86.00
76305;DHT22;65111;50.536;19.204;2023-05-07T05:10:36;8.00;85.80
76305;DHT22;65111;50.536;19.204;2023-05-07T05:13:02;8.10;85.60
76305;DHT22;65111;50.536;19.204;2023-05-07T05:15:28;8.10;85.50
76305;DHT22;65111;50.536;19.204;2023-05-07T05:17:54;8.10;85.50
76305;DHT22;65111;50.536;19.204;2023-05-07T05:20:20;8.20;85.50
76305;DHT22;65111;50.536;19.204;2023-05-07T05:22:46;8.10;85.60
76305;DHT22;65111;50.536;19.204;2023-05-07T05:25:12;8.40;85.40
76305;DHT22;65111;50.536;19.204;2023-05-07T05:27:38;8.30;85.30
76305;DHT22;65111;50.536;19.204;2023-05-07T05:30:08;8.30;85.30
76305;DHT22;65111;50.536;19.204;2023-05-07T05:32:34;8.40;85.20
76305;DHT22;65111;50.536;19.204;2023-05-07T05:35:00;8.50;84.90
76305;DHT22;65111;50.536;19.204;2023-05-07T05:37:26;8.40;84.70
76305;DHT22;65111;50.536;19.204;2023-05-07T05:39:52;8.30;84.50
76305;DHT22;65111;50.536;19.204;2023-05-07T05:42:20;8.50;84.40
76305;DHT22;65111;50.536;19.204;2023-05-07T05:44:46;8.50;84.10
76305;DHT22;65111;50.536;19.204;2023-05-07T05:47:13;8.60;83.90
76305;DHT22;65111;50.536;19.204;2023-05-07T05:49:39;8.50;84.00
76305;DHT22;65111;50.536;19.204;2023-05-07T05:52:05;8.50;84.10
76305;DHT22;65111;50.536;19.204;2023-05-07T05:54:31;8.50;84.00
76305;DHT22;65111;50.536;19.204;2023-05-07T05:56:57;8.60;83.50
76305;DHT22;65111;50.536;19.204;2023-05-07T05:59:23;8.60;83.80
76305;DHT22;65111;50.536;19.204;2023-05-07T06:01:49;8.60;83.50
76305;DHT22;65111;50.536;19.204;2023-05-07T06:04:16;8.50;83.40
76305;DHT22;65111;50.536;19.204;2023-05-07T06:06:41;8.70;83.60
76305;DHT22;65111;50.536;19.204;2023-05-07T06:09:07;8.70;83.60
76305;DHT22;65111;50.536;19.204;2023-05-07T06:11:34;8.80;83.80
76305;DHT22;65111;50.536;19.204;2023-05-07T06:14:00;8.80;83.80
76305;DHT22;65111;50.536;19.204;2023-05-07T06:16:26;8.90;83.70
76305;DHT22;65111;50.536;19.204;2023-05-07T06:18:52;8.90;83.60
76305;DHT22;65111;50.536;19.204;2023-05-07T06:21:18;8.90;83.80
76305;DHT22;65111;50.536;19.204;2023-05-07T06:23:44;8.90;83.50
76305;DHT22;65111;50.536;19.204;2023-05-07T06:26:10;9.00;83.00
76305;DHT22;65111;50.536;19.204;2023-05-07T06:28:37;8.90;82.60
76305;DHT22;65111;50.536;19.204;2023-05-07T06:31:17;9.00;82.50
76305;DHT22;65111;50.536;19.204;2023-05-07T06:33:44;9.00;82.10
76305;DHT22;65111;50.536;19.204;2023-05-07T06:36:11;9.00;82.00
76305;DHT22;65111;50.536;19.204;2023-05-07T06:38:37;9.10;81.80
76305;DHT22;65111;50.536;19.204;2023-05-07T06:41:03;9.10;82.00
76305;DHT22;65111;50.536;19.204;2023-05-07T06:43:29;9.10;81.90
76305;DHT22;65111;50.536;19.204;2023-05-07T06:45:55;9.20;81.80
76305;DHT22;65111;50.536;19.204;2023-05-07T06:48:21;9.20;82.00
76305;DHT22;65111;50.536;19.204;2023-05-07T06:50:47;9.20;82.00
76305;DHT22;65111;50.536;19.204;2023-05-07T06:53:13;9.10;82.40
76305;DHT22;65111;50.536;19.204;2023-05-07T06:55:39;9.10;82.40
76305;DHT22;65111;50.536;19.204;2023-05-07T06:58:07;9.10;81.90
76305;DHT22;65111;50.536;19.204;2023-05-07T07:00:33;9.20;81.60
76305;DHT22;65111;50.536;19.204;2023-05-07T07:03:00;9.30;81.40
76305;DHT22;65111;50.536;19.204;2023-05-07T07:05:27;9.20;80.90
76305;DHT22;65111;50.536;19.204;2023-05-07T07:07:53;9.30;80.90
76305;DHT22;65111;50.536;19.204;2023-05-07T07:10:19;9.30;80.90
76305;DHT22;65111;50.536;19.204;2023-05-07T07:12:45;9.30;81.20
76305;DHT22;65111;50.536;19.204;2023-05-07T07:15:13;9.20;81.00
76305;DHT22;65111;50.536;19.204;2023-05-07T07:17:39;9.20;81.50
76305;DHT22;65111;50.536;19.204;2023-05-07T07:20:06;9.10;81.20
76305;DHT22;65111;50.536;19.204;2023-05-07T07:22:32;9.20;81.10
76305;DHT22;65111;50.536;19.204;2023-05-07T07:24:58;9.20;81.50
76305;DHT22;65111;50.536;19.204;2023-05-07T07:27:25;9.20;81.90
76305;DHT22;65111;50.536;19.204;2023-05-07T07:29:51;9.20;81.60
76305;DHT22;65111;50.536;19.204;2023-05-07T07:32:17;9.20;81.20
76305;DHT22;65111;50.536;19.204;2023-05-07T07:34:43;9.30;81.50
76305;DHT22;65111;50.536;19.204;2023-05-07T07:37:09;9.30;81.50
76305;DHT22;65111;50.536;19.204;2023-05-07T07:39:35;9.20;81.20
76305;DHT22;65111;50.536;19.204;2023-05-07T07:42:03;9.30;81.00
76305;DHT22;65111;50.536;19.204;2023-05-07T07:44:29;9.30;80.70
76305;DHT22;65111;50.536;19.204;2023-05-07T07:46:55;9.20;81.10
76305;DHT22;65111;50.536;19.204;2023-05-07T07:49:21;9.40;80.90
76305;DHT22;65111;50.536;19.204;2023-05-07T07:51:47;9.50;81.40
76305;DHT22;65111;50.536;19.204;2023-05-07T07:54:13;9.60;81.30
76305;DHT22;65111;50.536;19.204;2023-05-07T07:56:40;9.80;80.30
76305;DHT22;65111;50.536;19.204;2023-05-07T07:59:06;9.80;80.10
76305;DHT22;65111;50.536;19.204;2023-05-07T08:01:32;9.90;79.70
76305;DHT22;65111;50.536;19.204;2023-05-07T08:03:58;9.70;78.50
76305;DHT22;65111;50.536;19.204;2023-05-07T08:06:25;9.60;79.60
76305;DHT22;65111;50.536;19.204;2023-05-07T08:08:54;9.50;80.10
76305;DHT22;65111;50.536;19.204;2023-05-07T08:11:21;9.50;80.50
76305;DHT22;65111;50.536;19.204;2023-05-07T08:13:47;9.50;80.60
76305;DHT22;65111;50.536;19.204;2023-05-07T08:16:13;9.60;80.00
76305;DHT22;65111;50.536;19.204;2023-05-07T08:18:40;9.60;80.10
76305;DHT22;65111;50.536;19.204;2023-05-07T08:21:05;9.70;80.20
76305;DHT22;65111;50.536;19.204;2023-05-07T08:23:32;9.60;80.30
76305;DHT22;65111;50.536;19.204;2023-05-07T08:26:00;9.60;79.90
76305;DHT22;65111;50.536;19.204;2023-05-07T08:28:26;9.70;79.60
76305;DHT22;65111;50.536;19.204;2023-05-07T08:30:52;9.60;79.70
76305;DHT22;65111;50.536;19.204;2023-05-07T08:33:19;9.60;79.80
76305;DHT22;65111;50.536;19.204;2023-05-07T08:35:45;9.50;79.70
76305;DHT22;65111;50.536;19.204;2023-05-07T08:38:11;9.60;79.70
76305;DHT22;65111;50.536;19.204;2023-05-07T08:40:39;9.60;79.80
76305;DHT22;65111;50.536;19.204;2023-05-07T08:43:07;9.60;79.80
76305;DHT22;65111;50.536;19.204;2023-05-07T08:45:34;9.60;79.60
76305;DHT22;65111;50.536;19.204;2023-05-07T08:48:02;9.60;79.80
76305;DHT22;65111;50.536;19.204;2023-05-07T08:50:29;9.60;79.70
76305;DHT22;65111;50.536;19.204;2023-05-07T08:52:56;9.70;79.60
76305;DHT22;65111;50.536;19.204;2023-05-07T08:55:23;9.70;79.50
76305;DHT22;65111;50.536;19.204;2023-05-07T08:57:50;9.70;79.70
76305;DHT22;65111;50.536;19.204;2023-05-07T09:00:18;9.70;79.60
76305;DHT22;65111;50.536;19.204;2023-05-07T09:02:44;9.60;79.20
76305;DHT22;65111;50.536;19.204;2023-05-07T09:05:10;9.60;79.50
76305;DHT22;65111;50.536;19.204;2023-05-07T09:07:37;9.60;79.50
76305;DHT22;65111;50.536;19.204;2023-05-07T09:10:04;9.70;79.40
76305;DHT22;65111;50.536;19.204;2023-05-07T09:12:30;9.70;79.30
76305;DHT22;65111;50.536;19.204;2023-05-07T09:14:57;9.60;79.40
76305;DHT22;65111;50.536;19.204;2023-05-07T09:17:23;9.60;79.50
76305;DHT22;65111;50.536;19.204;2023-05-07T09:19:49;9.80;79.70
76305;DHT22;65111;50.536;19.204;2023-05-07T09:22:15;9.90;79.30
76305;DHT22;65111;50.536;19.204;2023-05-07T09:24:47;10.00;78.40
76305;DHT22;65111;50.536;19.204;2023-05-07T09:27:14;10.00;78.60
76305;DHT22;65111;50.536;19.204;2023-05-07T09:29:40;10.10;78.00
76305;DHT22;65111;50.536;19.204;2023-05-07T09:32:08;10.10;77.40
76305;DHT22;65111;50.536;19.204;2023-05-07T09:34:35;10.10;77.90
76305;DHT22;65111;50.536;19.204;2023-05-07T09:37:03;10.00;78.00
76305;DHT22;65111;50.536;19.204;2023-05-07T09:39:43;10.10;77.60
76305;DHT22;65111;50.536;19.204;2023-05-07T09:42:10;10.20;77.50
76305;DHT22;65111;50.536;19.204;2023-05-07T09:44:38;10.20;77.40
76305;DHT22;65111;50.536;19.204;2023-05-07T09:47:05;10.20;76.90
76305;DHT22;65111;50.536;19.204;2023-05-07T09:49:35;10.10;77.00
76305;DHT22;65111;50.536;19.204;2023-05-07T09:52:03;10.10;77.20
76305;DHT22;65111;50.536;19.204;2023-05-07T09:54:35;10.20;76.90
76305;DHT22;65111;50.536;19.204;2023-05-07T09:57:04;10.10;76.80
76305;DHT22;65111;50.536;19.204;2023-05-07T09:59:32;10.00;77.40
76305;DHT22;65111;50.536;19.204;2023-05-07T10:02:00;10.00;77.40
76305;DHT22;65111;50.536;19.204;2023-05-07T10:04:27;10.00;77.50
76305;DHT22;65111;50.536;19.204;2023-05-07T10:06:54;10.00;77.60
76305;DHT22;65111;50.536;19.204;2023-05-07T10:09:21;10.00;77.50
76305;DHT22;65111;50.536;19.204;2023-05-07T10:11:49;10.10;76.90
76305;DHT22;65111;50.536;19.204;2023-05-07T10:14:15;9.90;76.90
76305;DHT22;65111;50.536;19.204;2023-05-07T10:16:42;9.90;77.30
76305;DHT22;65111;50.536;19.204;2023-05-07T10:19:09;9.90;77.30
76305;DHT22;65111;50.536;19.204;2023-05-07T10:21:39;9.90;77.20
76305;DHT22;65111;50.536;19.204;2023-05-07T10:24:09;9.80;77.70
76305;DHT22;65111;50.536;19.204;2023-05-07T10:26:44;9.70;78.30
76305;DHT22;65111;50.536;19.204;2023-05-07T10:32:02;9.70;78.20
76305;DHT22;65111;50.536;19.204;2023-05-07T10:34:40;9.70;78.20
76305;DHT22;65111;50.536;19.204;2023-05-07T10:37:08;9.80;78.30
76305;DHT22;65111;50.536;19.204;2023-05-07T10:39:35;9.60;78.60
76305;DHT22;65111;50.536;19.204;2023-05-07T10:42:12;9.60;78.80
76305;DHT22;65111;50.536;19.204;2023-05-07T10:44:39;9.60;78.90
76305;DHT22;65111;50.536;19.204;2023-05-07T10:47:14;9.70;78.30
76305;DHT22;65111;50.536;19.204;2023-05-07T10:52:20;9.80;78.20
76305;DHT22;65111;50.536;19.204;2023-05-07T10:54:46;9.70;78.50
76305;DHT22;65111;50.536;19.204;2023-05-07T10:59:57;9.70;78.20
76305;DHT22;65111;50.536;19.204;2023-05-07T11:05:27;10.00;77.70
76305;DHT22;65111;50.536;19.204;2023-05-07T11:07:55;10.20;77.50
76305;DHT22;65111;50.536;19.204;2023-05-07T11:10:21;10.60;76.30
76305;DHT22;65111;50.536;19.204;2023-05-07T11:12:51;11.00;73.00
76305;DHT22;65111;50.536;19.204;2023-05-07T11:15:39;11.10;71.40
76305;DHT22;65111;50.536;19.204;2023-05-07T11:18:07;10.80;72.30
76305;DHT22;65111;50.536;19.204;2023-05-07T11:20:52;10.60;72.40
76305;DHT22;65111;50.536;19.204;2023-05-07T11:26:10;10.00;74.80
76305;DHT22;65111;50.536;19.204;2023-05-07T11:28:39;9.80;76.70
76305;DHT22;65111;50.536;19.204;2023-05-07T11:31:05;9.80;76.60
76305;DHT22;65111;50.536;19.204;2023-05-07T11:33:32;9.90;76.40
76305;DHT22;65111;50.536;19.204;2023-05-07T11:36:00;9.90;76.50
76305;DHT22;65111;50.536;19.204;2023-05-07T11:38:26;9.90;75.90
76305;DHT22;65111;50.536;19.204;2023-05-07T11:40:59;10.10;76.60
76305;DHT22;65111;50.536;19.204;2023-05-07T11:43:31;10.40;75.90
76305;DHT22;65111;50.536;19.204;2023-05-07T11:46:13;10.80;73.70
76305;DHT22;65111;50.536;19.204;2023-05-07T11:48:40;11.10;73.10
76305;DHT22;65111;50.536;19.204;2023-05-07T11:51:07;11.30;72.20
76305;DHT22;65111;50.536;19.204;2023-05-07T11:53:40;11.20;71.60
76305;DHT22;65111;50.536;19.204;2023-05-07T11:56:11;11.20;71.60
76305;DHT22;65111;50.536;19.204;2023-05-07T11:58:37;11.20;71.80
76305;DHT22;65111;50.536;19.204;2023-05-07T12:01:04;11.10;72.20
76305;DHT22;65111;50.536;19.204;2023-05-07T12:03:30;11.20;73.30
76305;DHT22;65111;50.536;19.204;2023-05-07T12:05:56;11.10;72.40
76305;DHT22;65111;50.536;19.204;2023-05-07T12:08:22;11.00;72.80
76305;DHT22;65111;50.536;19.204;2023-05-07T12:10:49;10.90;71.90
76305;DHT22;65111;50.536;19.204;2023-05-07T12:13:17;10.70;73.30
76305;DHT22;65111;50.536;19.204;2023-05-07T12:15:43;10.80;73.30
76305;DHT22;65111;50.536;19.204;2023-05-07T12:18:11;10.60;72.60
76305;DHT22;65111;50.536;19.204;2023-05-07T12:20:38;10.60;73.40
76305;DHT22;65111;50.536;19.204;2023-05-07T12:23:05;10.60;74.00
76305;DHT22;65111;50.536;19.204;2023-05-07T12:25:34;10.60;74.60
76305;DHT22;65111;50.536;19.204;2023-05-07T12:28:01;10.40;73.60
76305;DHT22;65111;50.536;19.204;2023-05-07T12:30:27;10.50;73.80
76305;DHT22;65111;50.536;19.204;2023-05-07T12:32:54;10.50;75.00
76305;DHT22;65111;50.536;19.204;2023-05-07T12:35:30;10.60;73.90
76305;DHT22;65111;50.536;19.204;2023-05-07T12:37:59;11.00;74.90
76305;DHT22;65111;50.536;19.204;2023-05-07T12:40:43;11.20;73.60
76305;DHT22;65111;50.536;19.204;2023-05-07T12:43:29;11.80;72.00
76305;DHT22;65111;50.536;19.204;2023-05-07T12:45:57;12.20;70.80
76305;DHT22;65111;50.536;19.204;2023-05-07T12:48:23;12.20;70.10
76305;DHT22;65111;50.536;19.204;2023-05-07T12:51:01;11.90;70.20
76305;DHT22;65111;50.536;19.204;2023-05-07T12:53:29;11.60;70.70
76305;DHT22;65111;50.536;19.204;2023-05-07T12:55:58;11.40;70.70
76305;DHT22;65111;50.536;19.204;2023-05-07T12:58:27;11.10;70.80
76305;DHT22;65111;50.536;19.204;2023-05-07T13:00:54;10.90;71.00
76305;DHT22;65111;50.536;19.204;2023-05-07T13:03:29;10.60;72.30
76305;DHT22;65111;50.536;19.204;2023-05-07T13:06:03;10.40;73.40
76305;DHT22;65111;50.536;19.204;2023-05-07T13:08:31;10.30;74.00
76305;DHT22;65111;50.536;19.204;2023-05-07T13:11:02;10.10;74.90
76305;DHT22;65111;50.536;19.204;2023-05-07T13:13:34;10.20;75.40
76305;DHT22;65111;50.536;19.204;2023-05-07T13:16:04;10.40;75.50
76305;DHT22;65111;50.536;19.204;2023-05-07T13:18:32;10.40;74.70
76305;DHT22;65111;50.536;19.204;2023-05-07T13:20:59;10.40;73.90
76305;DHT22;65111;50.536;19.204;2023-05-07T13:23:27;10.10;74.60
76305;DHT22;65111;50.536;19.204;2023-05-07T13:25:53;9.70;75.70
76305;DHT22;65111;50.536;19.204;2023-05-07T13:28:20;9.40;76.90
76305;DHT22;65111;50.536;19.204;2023-05-07T13:30:46;9.20;78.40
76305;DHT22;65111;50.536;19.204;2023-05-07T13:33:13;9.20;79.00
76305;DHT22;65111;50.536;19.204;2023-05-07T13:35:39;9.20;78.10
76305;DHT22;65111;50.536;19.204;2023-05-07T13:38:06;9.20;79.10
76305;DHT22;65111;50.536;19.204;2023-05-07T13:40:32;9.40;79.00
76305;DHT22;65111;50.536;19.204;2023-05-07T13:42:59;9.70;78.30
76305;DHT22;65111;50.536;19.204;2023-05-07T13:45:28;10.20;76.10
76305;DHT22;65111;50.536;19.204;2023-05-07T13:47:56;10.60;74.80
76305;DHT22;65111;50.536;19.204;2023-05-07T13:50:22;10.80;72.10
76305;DHT22;65111;50.536;19.204;2023-05-07T13:52:49;10.80;71.00
76305;DHT22;65111;50.536;19.204;2023-05-07T13:55:18;10.80;72.10
76305;DHT22;65111;50.536;19.204;2023-05-07T13:57:44;10.80;71.40
76305;DHT22;65111;50.536;19.204;2023-05-07T14:00:11;10.70;70.40
76305;DHT22;65111;50.536;19.204;2023-05-07T14:02:38;10.50;72.60
76305;DHT22;65111;50.536;19.204;2023-05-07T14:05:04;10.40;73.50
76305;DHT22;65111;50.536;19.204;2023-05-07T14:07:30;10.40;73.30
76305;DHT22;65111;50.536;19.204;2023-05-07T14:09:57;10.20;73.30
76305;DHT22;65111;50.536;19.204;2023-05-07T14:12:23;10.10;73.80
76305;DHT22;65111;50.536;19.204;2023-05-07T14:14:49;9.90;74.50
76305;DHT22;65111;50.536;19.204;2023-05-07T14:17:19;9.70;75.00
76305;DHT22;65111;50.536;19.204;2023-05-07T14:19:45;9.50;76.00
76305;DHT22;65111;50.536;19.204;2023-05-07T14:22:13;9.30;76.70
76305;DHT22;65111;50.536;19.204;2023-05-07T14:24:39;9.10;77.50
76305;DHT22;65111;50.536;19.204;2023-05-07T14:27:06;9.10;77.40
76305;DHT22;65111;50.536;19.204;2023-05-07T14:29:32;9.10;77.50
76305;DHT22;65111;50.536;19.204;2023-05-07T14:31:58;8.90;78.00
76305;DHT22;65111;50.536;19.204;2023-05-07T14:34:24;8.80;78.00
76305;DHT22;65111;50.536;19.204;2023-05-07T14:36:50;8.70;78.50
76305;DHT22;65111;50.536;19.204;2023-05-07T14:39:18;8.70;79.50
76305;DHT22;65111;50.536;19.204;2023-05-07T14:41:43;8.60;79.60
76305;DHT22;65111;50.536;19.204;2023-05-07T14:44:10;8.70;79.40
76305;DHT22;65111;50.536;19.204;2023-05-07T14:46:35;9.00;79.90
76305;DHT22;65111;50.536;19.204;2023-05-07T14:49:02;9.20;79.30
76305;DHT22;65111;50.536;19.204;2023-05-07T14:51:28;9.40;77.90
76305;DHT22;65111;50.536;19.204;2023-05-07T14:53:54;9.50;77.80
76305;DHT22;65111;50.536;19.204;2023-05-07T14:56:21;9.50;78.10
76305;DHT22;65111;50.536;19.204;2023-05-07T14:58:47;9.60;77.60
76305;DHT22;65111;50.536;19.204;2023-05-07T15:01:14;9.70;77.00
76305;DHT22;65111;50.536;19.204;2023-05-07T15:03:40;9.60;76.80
76305;DHT22;65111;50.536;19.204;2023-05-07T15:06:06;9.60;76.50
76305;DHT22;65111;50.536;19.204;2023-05-07T15:08:32;9.50;76.20
76305;DHT22;65111;50.536;19.204;2023-05-07T15:10:59;9.60;76.20
76305;DHT22;65111;50.536;19.204;2023-05-07T15:13:25;9.50;76.30
76305;DHT22;65111;50.536;19.204;2023-05-07T15:15:50;9.40;76.40
76305;DHT22;65111;50.536;19.204;2023-05-07T15:18:17;9.30;76.60
76305;DHT22;65111;50.536;19.204;2023-05-07T15:20:43;9.20;77.20
76305;DHT22;65111;50.536;19.204;2023-05-07T15:23:09;9.30;76.80
76305;DHT22;65111;50.536;19.204;2023-05-07T15:25:37;9.30;76.40
76305;DHT22;65111;50.536;19.204;2023-05-07T15:28:03;9.10;76.80
76305;DHT22;65111;50.536;19.204;2023-05-07T15:30:30;9.00;77.60
76305;DHT22;65111;50.536;19.204;2023-05-07T15:32:56;8.90;78.20
76305;DHT22;65111;50.536;19.204;2023-05-07T15:35:22;9.00;77.60
76305;DHT22;65111;50.536;19.204;2023-05-07T15:37:49;9.20;77.20
76305;DHT22;65111;50.536;19.204;2023-05-07T15:40:15;9.10;77.30